sensor_id;sensor_type;location;lat;lon;timestamp;temperature;humidity
17425;DHT22;8830;50.978;5.058;2022-11-20T00:01:19;4.30;99.90
17425;DHT22;8830;50.978;5.058;2022-11-20T00:03:46;4.30;99.90
17425;DHT22;8830;50.978;5.058;2022-11-20T00:06:17;4.60;99.90
17425;DHT22;8830;50.978;5.058;2022-11-20T00:08:45;4.40;99.90
17425;DHT22;8830;50.978;5.058;2022-11-20T00:11:14;4.30;99.90
17425;DHT22;8830;50.978;5.058;2022-11-20T00:13:41;4.30;99.90
17425;DHT22;8830;50.978;5.058;2022-11-20T00:16:10;4.30;99.90
17425;DHT22;8830;50.978;5.058;2022-11-20T00:18:37;4.30;99.90
17425;DHT22;8830;50.978;5.058;2022-11-20T00:21:06;4.40;99.90
17425;DHT22;8830;50.978;5.058;2022-11-20T00:23:34;4.40;99.90
17425;DHT22;8830;50.978;5.058;2022-11-20T00:26:02;4.40;99.90
17425;DHT22;8830;50.978;5.058;2022-11-20T00:28:30;4.40;99.90
17425;DHT22;8830;50.978;5.058;2022-11-20T00:31:08;4.40;99.90
17425;DHT22;8830;50.978;5.058;2022-11-20T00:33:36;4.40;99.90
17425;DHT22;8830;50.978;5.058;2022-11-20T00:36:04;4.70;99.90
17425;DHT22;8830;50.978;5.058;2022-11-20T00:38:32;4.40;99.90
17425;DHT22;8830;50.978;5.058;2022-11-20T00:41:02;4.40;99.90
17425;DHT22;8830;50.978;5.058;2022-11-20T00:43:29;4.40;99.90
17425;DHT22;8830;50.978;5.058;2022-11-20T00:45:58;4.40;99.90
17425;DHT22;8830;50.978;5.058;2022-11-20T00:48:25;4.40;99.90
17425;DHT22;8830;50.978;5.058;2022-11-20T00:50:53;4.50;99.90
17425;DHT22;8830;50.978;5.058;2022-11-20T00:53:21;4.50;99.90
17425;DHT22;8830;50.978;5.058;2022-11-20T00:55:55;4.50;99.90
17425;DHT22;8830;50.978;5.058;2022-11-20T00:58:24;4.50;99.90
17425;DHT22;8830;50.978;5.058;2022-11-20T01:00:59;4.50;99.90
17425;DHT22;8830;50.978;5.058;2022-11-20T01:03:26;5.20;99.90
17425;DHT22;8830;50.978;5.058;2022-11-20T01:05:53;5.30;99.90
17425;DHT22;8830;50.978;5.058;2022-11-20T01:08:20;4.50;99.90
17425;DHT22;8830;50.978;5.058;2022-11-20T01:10:47;4.50;99.90
17425;DHT22;8830;50.978;5.058;2022-11-20T01:13:13;4.50;99.90
17425;DHT22;8830;50.978;5.058;2022-11-20T01:16:03;4.60;99.90
17425;DHT22;8830;50.978;5.058;2022-11-20T01:18:34;4.50;99.90
17425;DHT22;8830;50.978;5.058;2022-11-20T01:21:02;4.50;99.90
17425;DHT22;8830;50.978;5.058;2022-11-20T01:23:33;4.50;99.90
17425;DHT22;8830;50.978;5.058;2022-11-20T01:26:10;4.40;99.90
17425;DHT22;8830;50.978;5.058;2022-11-20T01:28:37;4.40;99.90
17425;DHT22;8830;50.978;5.058;2022-11-20T01:31:12;4.40;99.90
17425;DHT22;8830;50.978;5.058;2022-11-20T01:33:40;4.40;99.90
17425;DHT22;8830;50.978;5.058;2022-11-20T01:36:08;4.40;99.90
17425;DHT22;8830;50.978;5.058;2022-11-20T01:38:35;4.50;99.90
17425;DHT22;8830;50.978;5.058;2022-11-20T01:41:02;4.50;99.90
17425;DHT22;8830;50.978;5.058;2022-11-20T01:43:30;4.50;99.90
17425;DHT22;8830;50.978;5.058;2022-11-20T01:46:16;5.30;99.90
17425;DHT22;8830;50.978;5.058;2022-11-20T01:48:49;4.50;99.90
17425;DHT22;8830;50.978;5.058;2022-11-20T01:51:25;4.50;99.90
17425;DHT22;8830;50.978;5.058;2022-11-20T01:53:55;4.60;99.90
17425;DHT22;8830;50.978;5.058;2022-11-20T01:56:24;4.60;99.90
17425;DHT22;8830;50.978;5.058;2022-11-20T01:58:54;4.60;99.90
17425;DHT22;8830;50.978;5.058;2022-11-20T02:01:24;4.60;99.90
17425;DHT22;8830;50.978;5.058;2022-11-20T02:03:51;4.60;99.90
17425;DHT22;8830;50.978;5.058;2022-11-20T02:06:23;4.50;99.90
17425;DHT22;8830;50.978;5.058;2022-11-20T02:08:51;4.50;99.90
17425;DHT22;8830;50.978;5.058;2022-11-20T02:11:18;4.50;99.90
17425;DHT22;8830;50.978;5.058;2022-11-20T02:13:45;4.50;99.90
17425;DHT22;8830;50.978;5.058;2022-11-20T02:16:15;5.10;99.90
17425;DHT22;8830;50.978;5.058;2022-11-20T02:18:45;4.50;99.90
17425;DHT22;8830;50.978;5.058;2022-11-20T02:21:28;4.50;99.90
17425;DHT22;8830;50.978;5.058;2022-11-20T02:24:06;4.40;99.90
17425;DHT22;8830;50.978;5.058;2022-11-20T02:26:38;4.40;99.90
17425;DHT22;8830;50.978;5.058;2022-11-20T02:29:05;4.50;99.90
17425;DHT22;8830;50.978;5.058;2022-11-20T02:31:37;4.50;99.90
17425;DHT22;8830;50.978;5.058;2022-11-20T02:34:06;4.40;99.90
17425;DHT22;8830;50.978;5.058;2022-11-20T02:36:33;4.50;99.90
17425;DHT22;8830;50.978;5.058;2022-11-20T02:39:02;4.50;99.90
17425;DHT22;8830;50.978;5.058;2022-11-20T02:41:40;4.50;99.90
17425;DHT22;8830;50.978;5.058;2022-11-20T02:44:08;4.50;99.90
17425;DHT22;8830;50.978;5.058;2022-11-20T02:46:35;4.50;99.90
17425;DHT22;8830;50.978;5.058;2022-11-20T02:49:03;4.50;99.90
17425;DHT22;8830;50.978;5.058;2022-11-20T02:51:30;4.50;99.90
17425;DHT22;8830;50.978;5.058;2022-11-20T02:53:57;4.50;99.90
17425;DHT22;8830;50.978;5.058;2022-11-20T02:56:25;4.50;99.90
17425;DHT22;8830;50.978;5.058;2022-11-20T02:58:54;4.50;99.90
17425;DHT22;8830;50.978;5.058;2022-11-20T03:01:21;4.50;99.90
17425;DHT22;8830;50.978;5.058;2022-11-20T03:03:48;5.50;99.90
17425;DHT22;8830;50.978;5.058;2022-11-20T03:06:16;4.50;99.90
17425;DHT22;8830;50.978;5.058;2022-11-20T03:08:43;4.50;99.90
17425;DHT22;8830;50.978;5.058;2022-11-20T03:13:37;4.50;99.90
17425;DHT22;8830;50.978;5.058;2022-11-20T03:16:10;4.40;99.90
17425;DHT22;8830;50.978;5.058;2022-11-20T03:18:37;4.40;99.90
17425;DHT22;8830;50.978;5.058;2022-11-20T03:21:05;4.50;99.90
17425;DHT22;8830;50.978;5.058;2022-11-20T03:23:32;4.50;99.90
17425;DHT22;8830;50.978;5.058;2022-11-20T03:26:14;4.50;99.90
17425;DHT22;8830;50.978;5.058;2022-11-20T03:28:42;4.50;99.90
17425;DHT22;8830;50.978;5.058;2022-11-20T03:31:15;4.50;99.90
17425;DHT22;8830;50.978;5.058;2022-11-20T03:33:43;4.50;99.90
17425;DHT22;8830;50.978;5.058;2022-11-20T03:36:13;4.50;99.90
17425;DHT22;8830;50.978;5.058;2022-11-20T03:38:41;5.40;99.90
17425;DHT22;8830;50.978;5.058;2022-11-20T03:41:11;4.50;99.90
17425;DHT22;8830;50.978;5.058;2022-11-20T03:43:38;4.50;99.90
17425;DHT22;8830;50.978;5.058;2022-11-20T03:46:06;4.50;99.90
17425;DHT22;8830;50.978;5.058;2022-11-20T03:48:34;4.50;99.90
17425;DHT22;8830;50.978;5.058;2022-11-20T03:51:12;4.60;99.90
17425;DHT22;8830;50.978;5.058;2022-11-20T03:53:40;4.60;99.90
17425;DHT22;8830;50.978;5.058;2022-11-20T03:56:09;4.70;99.90
17425;DHT22;8830;50.978;5.058;2022-11-20T03:58:37;4.70;99.90
17425;DHT22;8830;50.978;5.058;2022-11-20T04:01:10;4.60;99.90
17425;DHT22;8830;50.978;5.058;2022-11-20T04:03:40;4.60;99.90
17425;DHT22;8830;50.978;5.058;2022-11-20T04:06:09;4.60;99.90
17425;DHT22;8830;50.978;5.058;2022-11-20T04:08:36;4.60;99.90
17425;DHT22;8830;50.978;5.058;2022-11-20T04:11:11;4.60;99.90
17425;DHT22;8830;50.978;5.058;2022-11-20T04:13:39;4.60;99.90
17425;DHT22;8830;50.978;5.058;2022-11-20T04:16:07;4.60;99.90
17425;DHT22;8830;50.978;5.058;2022-11-20T04:18:35;4.60;99.90
17425;DHT22;8830;50.978;5.058;2022-11-20T04:21:04;4.60;99.90
17425;DHT22;8830;50.978;5.058;2022-11-20T04:23:31;4.60;99.90
17425;DHT22;8830;50.978;5.058;2022-11-20T04:26:03;4.60;99.90
17425;DHT22;8830;50.978;5.058;2022-11-20T04:28:30;4.60;99.90
17425;DHT22;8830;50.978;5.058;2022-11-20T04:31:05;4.70;99.90
17425;DHT22;8830;50.978;5.058;2022-11-20T04:33:32;4.80;99.90
17425;DHT22;8830;50.978;5.058;2022-11-20T04:36:05;4.80;99.90
17425;DHT22;8830;50.978;5.058;2022-11-20T04:38:33;5.00;99.90
17425;DHT22;8830;50.978;5.058;2022-11-20T04:41:01;4.80;99.90
17425;DHT22;8830;50.978;5.058;2022-11-20T04:43:29;4.80;99.90
17425;DHT22;8830;50.978;5.058;2022-11-20T04:45:57;4.80;99.90
17425;DHT22;8830;50.978;5.058;2022-11-20T04:48:26;4.80;99.90
17425;DHT22;8830;50.978;5.058;2022-11-20T04:50:54;4.70;99.90
17425;DHT22;8830;50.978;5.058;2022-11-20T04:53:22;4.70;99.90
17425;DHT22;8830;50.978;5.058;2022-11-20T04:55:49;4.70;99.90
17425;DHT22;8830;50.978;5.058;2022-11-20T04:58:17;4.70;99.90
17425;DHT22;8830;50.978;5.058;2022-11-20T05:00:44;4.80;99.90
17425;DHT22;8830;50.978;5.058;2022-11-20T05:03:10;4.80;99.90
17425;DHT22;8830;50.978;5.058;2022-11-20T05:05:37;4.70;99.90
17425;DHT22;8830;50.978;5.058;2022-11-20T05:08:04;4.70;99.90
17425;DHT22;8830;50.978;5.058;2022-11-20T05:10:32;4.80;99.90
17425;DHT22;8830;50.978;5.058;2022-11-20T05:12:59;4.80;99.90
17425;DHT22;8830;50.978;5.058;2022-11-20T05:15:26;4.80;99.90
17425;DHT22;8830;50.978;5.058;2022-11-20T05:17:53;4.90;99.90
17425;DHT22;8830;50.978;5.058;2022-11-20T05:20:20;5.20;99.90
17425;DHT22;8830;50.978;5.058;2022-11-20T05:22:47;4.70;99.90
17425;DHT22;8830;50.978;5.058;2022-11-20T05:25:14;4.70;99.90
17425;DHT22;8830;50.978;5.058;2022-11-20T05:27:43;5.20;99.90
17425;DHT22;8830;50.978;5.058;2022-11-20T05:30:12;4.70;99.90
17425;DHT22;8830;50.978;5.058;2022-11-20T05:32:39;4.70;99.90
17425;DHT22;8830;50.978;5.058;2022-11-20T05:35:06;4.70;99.90
17425;DHT22;8830;50.978;5.058;2022-11-20T05:37:33;4.70;99.90
17425;DHT22;8830;50.978;5.058;2022-11-20T05:40:00;4.60;99.90
17425;DHT22;8830;50.978;5.058;2022-11-20T05:42:30;4.60;99.90
17425;DHT22;8830;50.978;5.058;2022-11-20T05:44:58;4.60;99.90
17425;DHT22;8830;50.978;5.058;2022-11-20T05:47:26;4.60;99.90
17425;DHT22;8830;50.978;5.058;2022-11-20T05:49:53;5.70;99.90
17425;DHT22;8830;50.978;5.058;2022-11-20T05:52:20;4.60;99.90
17425;DHT22;8830;50.978;5.058;2022-11-20T05:54:47;4.60;99.90
17425;DHT22;8830;50.978;5.058;2022-11-20T05:57:14;4.60;99.90
17425;DHT22;8830;50.978;5.058;2022-11-20T05:59:41;4.60;99.90
17425;DHT22;8830;50.978;5.058;2022-11-20T06:02:09;4.60;99.90
17425;DHT22;8830;50.978;5.058;2022-11-20T06:04:36;4.60;99.90
17425;DHT22;8830;50.978;5.058;2022-11-20T06:07:05;4.60;99.90
17425;DHT22;8830;50.978;5.058;2022-11-20T06:09:32;5.20;99.90
17425;DHT22;8830;50.978;5.058;2022-11-20T06:11:59;4.60;99.90
17425;DHT22;8830;50.978;5.058;2022-11-20T06:14:26;4.60;99.90
17425;DHT22;8830;50.978;5.058;2022-11-20T06:16:53;4.60;99.90
17425;DHT22;8830;50.978;5.058;2022-11-20T06:19:22;4.60;99.90
17425;DHT22;8830;50.978;5.058;2022-11-20T06:21:50;4.70;99.90
17425;DHT22;8830;50.978;5.058;2022-11-20T06:24:17;4.70;99.90
17425;DHT22;8830;50.978;5.058;2022-11-20T06:26:45;4.70;99.90
17425;DHT22;8830;50.978;5.058;2022-11-20T06:29:12;4.70;99.90
17425;DHT22;8830;50.978;5.058;2022-11-20T06:31:39;4.70;99.90
17425;DHT22;8830;50.978;5.058;2022-11-20T06:34:07;4.70;99.90
17425;DHT22;8830;50.978;5.058;2022-11-20T06:36:37;4.70;99.90
17425;DHT22;8830;50.978;5.058;2022-11-20T06:39:04;4.70;99.90
17425;DHT22;8830;50.978;5.058;2022-11-20T06:41:31;4.70;99.90
17425;DHT22;8830;50.978;5.058;2022-11-20T06:46:27;4.50;99.90
17425;DHT22;8830;50.978;5.058;2022-11-20T06:48:55;5.00;99.90
17425;DHT22;8830;50.978;5.058;2022-11-20T06:51:22;4.50;99.90
17425;DHT22;8830;50.978;5.058;2022-11-20T06:53:50;4.50;99.90
17425;DHT22;8830;50.978;5.058;2022-11-20T06:56:17;4.50;99.90
17425;DHT22;8830;50.978;5.058;2022-11-20T06:58:45;4.50;99.90
17425;DHT22;8830;50.978;5.058;2022-11-20T07:01:14;4.50;99.90
17425;DHT22;8830;50.978;5.058;2022-11-20T07:03:41;4.30;99.90
17425;DHT22;8830;50.978;5.058;2022-11-20T07:06:09;4.30;99.90
17425;DHT22;8830;50.978;5.058;2022-11-20T07:08:37;4.40;99.90
17425;DHT22;8830;50.978;5.058;2022-11-20T07:11:07;4.30;99.90
17425;DHT22;8830;50.978;5.058;2022-11-20T07:13:37;4.30;99.90
17425;DHT22;8830;50.978;5.058;2022-11-20T07:16:06;4.30;99.90
17425;DHT22;8830;50.978;5.058;2022-11-20T07:18:34;4.30;99.90
17425;DHT22;8830;50.978;5.058;2022-11-20T07:21:01;4.30;99.90
17425;DHT22;8830;50.978;5.058;2022-11-20T07:23:29;4.20;99.90
17425;DHT22;8830;50.978;5.058;2022-11-20T07:25:57;4.90;99.90
17425;DHT22;8830;50.978;5.058;2022-11-20T07:28:25;4.20;99.90
17425;DHT22;8830;50.978;5.058;2022-11-20T07:30:53;4.30;99.90
17425;DHT22;8830;50.978;5.058;2022-11-20T07:33:21;4.40;99.90
17425;DHT22;8830;50.978;5.058;2022-11-20T07:35:48;4.40;99.90
17425;DHT22;8830;50.978;5.058;2022-11-20T07:38:15;4.50;99.90
17425;DHT22;8830;50.978;5.058;2022-11-20T07:40:42;4.50;99.90
17425;DHT22;8830;50.978;5.058;2022-11-20T07:43:10;4.60;99.90
17425;DHT22;8830;50.978;5.058;2022-11-20T07:45:40;4.80;99.90
17425;DHT22;8830;50.978;5.058;2022-11-20T07:48:07;4.80;99.90
17425;DHT22;8830;50.978;5.058;2022-11-20T07:50:34;4.90;99.90
17425;DHT22;8830;50.978;5.058;2022-11-20T07:53:04;4.80;99.90
17425;DHT22;8830;50.978;5.058;2022-11-20T07:55:43;4.90;99.90
17425;DHT22;8830;50.978;5.058;2022-11-20T08:01:35;5.00;99.90
17425;DHT22;8830;50.978;5.058;2022-11-20T08:04:03;5.00;99.90
17425;DHT22;8830;50.978;5.058;2022-11-20T08:06:31;5.00;99.90
17425;DHT22;8830;50.978;5.058;2022-11-20T08:08:58;5.10;99.90
17425;DHT22;8830;50.978;5.058;2022-11-20T08:20:38;5.00;99.90
17425;DHT22;8830;50.978;5.058;2022-11-20T08:26:29;5.10;99.90
17425;DHT22;8830;50.978;5.058;2022-11-20T08:28:57;5.10;99.90
17425;DHT22;8830;50.978;5.058;2022-11-20T08:31:26;5.10;99.90
17425;DHT22;8830;50.978;5.058;2022-11-20T08:33:53;5.20;99.90
17425;DHT22;8830;50.978;5.058;2022-11-20T08:36:22;5.20;99.90
17425;DHT22;8830;50.978;5.058;2022-11-20T08:38:50;5.20;99.90
17425;DHT22;8830;50.978;5.058;2022-11-20T08:41:18;5.30;99.90
17425;DHT22;8830;50.978;5.058;2022-11-20T08:43:54;5.30;99.90
17425;DHT22;8830;50.978;5.058;2022-11-20T08:46:26;5.50;99.90
17425;DHT22;8830;50.978;5.058;2022-11-20T08:48:53;5.50;99.90
17425;DHT22;8830;50.978;5.058;2022-11-20T08:51:22;5.60;99.90
17425;DHT22;8830;50.978;5.058;2022-11-20T08:53:49;5.70;99.90
17425;DHT22;8830;50.978;5.058;2022-11-20T08:56:16;5.70;99.90
17425;DHT22;8830;50.978;5.058;2022-11-20T08:58:44;5.20;99.90
17425;DHT22;8830;50.978;5.058;2022-11-20T09:01:11;5.60;99.90
17425;DHT22;8830;50.978;5.058;2022-11-20T09:03:38;5.60;99.90
17425;DHT22;8830;50.978;5.058;2022-11-20T09:06:07;5.70;99.90
17425;DHT22;8830;50.978;5.058;2022-11-20T09:08:37;5.60;99.90
17425;DHT22;8830;50.978;5.058;2022-11-20T09:11:04;5.70;99.90
17425;DHT22;8830;50.978;5.058;2022-11-20T09:13:33;5.70;99.90
17425;DHT22;8830;50.978;5.058;2022-11-20T09:16:03;5.80;99.90
17425;DHT22;8830;50.978;5.058;2022-11-20T09:18:32;5.90;99.90
17425;DHT22;8830;50.978;5.058;2022-11-20T09:21:00;6.20;99.90
17425;DHT22;8830;50.978;5.058;2022-11-20T09:23:35;6.20;99.90
17425;DHT22;8830;50.978;5.058;2022-11-20T09:26:05;6.20;99.90
17425;DHT22;8830;50.978;5.058;2022-11-20T09:28:33;6.20;99.90
17425;DHT22;8830;50.978;5.058;2022-11-20T09:31:00;6.30;99.90
17425;DHT22;8830;50.978;5.058;2022-11-20T09:33:27;6.30;99.90
17425;DHT22;8830;50.978;5.058;2022-11-20T09:35:54;6.30;99.90
17425;DHT22;8830;50.978;5.058;2022-11-20T09:38:21;6.30;99.90
17425;DHT22;8830;50.978;5.058;2022-11-20T09:40:52;6.40;99.90
17425;DHT22;8830;50.978;5.058;2022-11-20T09:43:29;6.30;99.90
17425;DHT22;8830;50.978;5.058;2022-11-20T09:46:05;6.40;99.90
17425;DHT22;8830;50.978;5.058;2022-11-20T09:48:48;5.40;99.90
17425;DHT22;8830;50.978;5.058;2022-11-20T09:51:27;6.30;99.90
17425;DHT22;8830;50.978;5.058;2022-11-20T09:54:08;6.40;99.90
17425;DHT22;8830;50.978;5.058;2022-11-20T09:56:40;6.40;99.90
17425;DHT22;8830;50.978;5.058;2022-11-20T09:59:18;6.50;99.90
17425;DHT22;8830;50.978;5.058;2022-11-20T10:01:47;6.50;99.90
17425;DHT22;8830;50.978;5.058;2022-11-20T10:04:17;6.50;99.90
17425;DHT22;8830;50.978;5.058;2022-11-20T10:06:52;6.60;99.90
17425;DHT22;8830;50.978;5.058;2022-11-20T10:09:27;6.60;99.90
17425;DHT22;8830;50.978;5.058;2022-11-20T10:12:06;6.70;99.90
17425;DHT22;8830;50.978;5.058;2022-11-20T10:14:49;6.70;99.90
17425;DHT22;8830;50.978;5.058;2022-11-20T10:17:27;6.70;99.90
17425;DHT22;8830;50.978;5.058;2022-11-20T10:20:08;6.70;99.90
17425;DHT22;8830;50.978;5.058;2022-11-20T10:22:46;6.70;99.90
17425;DHT22;8830;50.978;5.058;2022-11-20T10:25:16;6.80;99.90
17425;DHT22;8830;50.978;5.058;2022-11-20T10:27:57;6.70;99.90
17425;DHT22;8830;50.978;5.058;2022-11-20T10:30:37;6.80;99.90
17425;DHT22;8830;50.978;5.058;2022-11-20T10:33:06;7.10;99.90
17425;DHT22;8830;50.978;5.058;2022-11-20T10:35:40;6.90;99.90
17425;DHT22;8830;50.978;5.058;2022-11-20T10:38:12;7.10;99.90
17425;DHT22;8830;50.978;5.058;2022-11-20T10:40:45;7.10;99.90
17425;DHT22;8830;50.978;5.058;2022-11-20T10:43:17;7.10;99.90
17425;DHT22;8830;50.978;5.058;2022-11-20T10:45:52;7.20;99.90
17425;DHT22;8830;50.978;5.058;2022-11-20T10:48:23;7.20;99.90
17425;DHT22;8830;50.978;5.058;2022-11-20T10:51:03;7.20;99.90
17425;DHT22;8830;50.978;5.058;2022-11-20T10:53:59;7.20;99.90
17425;DHT22;8830;50.978;5.058;2022-11-20T10:56:35;7.00;99.90
17425;DHT22;8830;50.978;5.058;2022-11-20T10:59:35;7.50;99.90
17425;DHT22;8830;50.978;5.058;2022-11-20T11:02:17;7.70;99.90
17425;DHT22;8830;50.978;5.058;2022-11-20T11:04:46;7.70;99.90
17425;DHT22;8830;50.978;5.058;2022-11-20T11:07:17;7.70;99.90
17425;DHT22;8830;50.978;5.058;2022-11-20T11:09:49;7.70;99.90
17425;DHT22;8830;50.978;5.058;2022-11-20T11:12:17;7.80;99.90
17425;DHT22;8830;50.978;5.058;2022-11-20T11:14:47;7.60;99.90
17425;DHT22;8830;50.978;5.058;2022-11-20T11:17:25;7.60;99.90
17425;DHT22;8830;50.978;5.058;2022-11-20T11:20:16;7.60;99.90
17425;DHT22;8830;50.978;5.058;2022-11-20T11:22:45;7.70;99.90
17425;DHT22;8830;50.978;5.058;2022-11-20T11:25:25;7.90;99.90
17425;DHT22;8830;50.978;5.058;2022-11-20T11:27:54;7.90;99.90
17425;DHT22;8830;50.978;5.058;2022-11-20T11:30:22;8.00;99.90
17425;DHT22;8830;50.978;5.058;2022-11-20T11:33:03;8.00;99.90
17425;DHT22;8830;50.978;5.058;2022-11-20T11:38:04;8.10;99.90
17425;DHT22;8830;50.978;5.058;2022-11-20T11:40:34;8.10;99.90
17425;DHT22;8830;50.978;5.058;2022-11-20T11:43:05;8.20;99.90
17425;DHT22;8830;50.978;5.058;2022-11-20T11:45:54;8.20;99.90
17425;DHT22;8830;50.978;5.058;2022-11-20T11:48:22;8.40;99.90
17425;DHT22;8830;50.978;5.058;2022-11-20T11:50:50;8.20;99.90
17425;DHT22;8830;50.978;5.058;2022-11-20T11:53:18;8.30;99.90
17425;DHT22;8830;50.978;5.058;2022-11-20T11:55:49;8.30;99.90
17425;DHT22;8830;50.978;5.058;2022-11-20T11:58:33;8.50;99.90
17425;DHT22;8830;50.978;5.058;2022-11-20T12:01:07;8.50;99.90
17425;DHT22;8830;50.978;5.058;2022-11-20T12:03:44;8.60;99.90
17425;DHT22;8830;50.978;5.058;2022-11-20T12:06:16;8.70;99.90
17425;DHT22;8830;50.978;5.058;2022-11-20T12:08:49;8.70;99.90
17425;DHT22;8830;50.978;5.058;2022-11-20T12:11:23;8.80;99.90
17425;DHT22;8830;50.978;5.058;2022-11-20T12:13:55;8.80;99.90
17425;DHT22;8830;50.978;5.058;2022-11-20T12:16:23;9.00;99.90
17425;DHT22;8830;50.978;5.058;2022-11-20T12:18:52;9.10;99.90
17425;DHT22;8830;50.978;5.058;2022-11-20T12:21:28;9.20;99.90
17425;DHT22;8830;50.978;5.058;2022-11-20T12:24:11;9.40;99.90
17425;DHT22;8830;50.978;5.058;2022-11-20T12:26:54;9.40;99.90
17425;DHT22;8830;50.978;5.058;2022-11-20T12:29:32;9.50;99.90
17425;DHT22;8830;50.978;5.058;2022-11-20T12:32:29;9.70;99.90
17425;DHT22;8830;50.978;5.058;2022-11-20T12:35:06;9.80;99.90
17425;DHT22;8830;50.978;5.058;2022-11-20T12:37:42;9.90;99.90
17425;DHT22;8830;50.978;5.058;2022-11-20T12:40:33;10.00;99.90
17425;DHT22;8830;50.978;5.058;2022-11-20T12:43:11;10.00;99.90
17425;DHT22;8830;50.978;5.058;2022-11-20T12:46:25;10.00;99.90
17425;DHT22;8830;50.978;5.058;2022-11-20T12:49:04;10.00;99.90
17425;DHT22;8830;50.978;5.058;2022-11-20T12:51:50;10.00;99.90
17425;DHT22;8830;50.978;5.058;2022-11-20T12:54:34;9.90;99.90
17425;DHT22;8830;50.978;5.058;2022-11-20T12:57:08;10.00;99.90
17425;DHT22;8830;50.978;5.058;2022-11-20T12:59:51;9.90;99.90
17425;DHT22;8830;50.978;5.058;2022-11-20T13:02:27;9.70;99.90
17425;DHT22;8830;50.978;5.058;2022-11-20T13:05:16;9.60;99.90
17425;DHT22;8830;50.978;5.058;2022-11-20T13:07:46;9.40;99.90
17425;DHT22;8830;50.978;5.058;2022-11-20T13:10:18;9.40;99.90
17425;DHT22;8830;50.978;5.058;2022-11-20T13:12:54;9.20;99.90
17425;DHT22;8830;50.978;5.058;2022-11-20T13:15:35;9.10;99.90
17425;DHT22;8830;50.978;5.058;2022-11-20T13:18:04;7.40;99.90
17425;DHT22;8830;50.978;5.058;2022-11-20T13:20:34;8.90;99.90
17425;DHT22;8830;50.978;5.058;2022-11-20T13:23:06;8.90;99.90
17425;DHT22;8830;50.978;5.058;2022-11-20T13:25:35;8.80;99.90
17425;DHT22;8830;50.978;5.058;2022-11-20T13:28:04;8.70;99.90
17425;DHT22;8830;50.978;5.058;2022-11-20T13:30:32;8.70;99.90
17425;DHT22;8830;50.978;5.058;2022-11-20T13:33:05;8.70;99.90
17425;DHT22;8830;50.978;5.058;2022-11-20T13:35:35;8.70;99.90
17425;DHT22;8830;50.978;5.058;2022-11-20T13:38:07;8.60;99.90
17425;DHT22;8830;50.978;5.058;2022-11-20T13:40:36;8.60;99.90
17425;DHT22;8830;50.978;5.058;2022-11-20T13:43:21;8.60;99.90
17425;DHT22;8830;50.978;5.058;2022-11-20T13:45:57;8.60;99.90
17425;DHT22;8830;50.978;5.058;2022-11-20T13:48:26;8.60;99.90
17425;DHT22;8830;50.978;5.058;2022-11-20T13:51:05;8.60;99.90
17425;DHT22;8830;50.978;5.058;2022-11-20T13:54:14;8.50;99.90
17425;DHT22;8830;50.978;5.058;2022-11-20T13:56:59;8.50;99.90
17425;DHT22;8830;50.978;5.058;2022-11-20T13:59:40;8.40;99.90
17425;DHT22;8830;50.978;5.058;2022-11-20T14:02:12;8.40;99.90
17425;DHT22;8830;50.978;5.058;2022-11-20T14:04:43;8.50;99.90
17425;DHT22;8830;50.978;5.058;2022-11-20T14:07:11;8.50;99.90
17425;DHT22;8830;50.978;5.058;2022-11-20T14:09:50;8.40;99.90
17425;DHT22;8830;50.978;5.058;2022-11-20T14:12:19;8.40;99.90
17425;DHT22;8830;50.978;5.058;2022-11-20T14:14:51;8.40;99.90
17425;DHT22;8830;50.978;5.058;2022-11-20T14:17:20;8.30;99.90
17425;DHT22;8830;50.978;5.058;2022-11-20T14:19:48;8.30;99.90
17425;DHT22;8830;50.978;5.058;2022-11-20T14:22:20;8.20;99.90
17425;DHT22;8830;50.978;5.058;2022-11-20T14:25:00;8.20;99.90
17425;DHT22;8830;50.978;5.058;2022-11-20T14:27:27;8.20;99.90
17425;DHT22;8830;50.978;5.058;2022-11-20T14:29:55;8.20;99.90
17425;DHT22;8830;50.978;5.058;2022-11-20T14:32:26;8.10;99.90
17425;DHT22;8830;50.978;5.058;2022-11-20T14:35:02;8.20;99.90
17425;DHT22;8830;50.978;5.058;2022-11-20T14:37:33;8.20;99.90
17425;DHT22;8830;50.978;5.058;2022-11-20T14:40:21;8.10;99.90
17425;DHT22;8830;50.978;5.058;2022-11-20T14:42:48;8.20;99.90
17425;DHT22;8830;50.978;5.058;2022-11-20T14:45:15;8.20;99.90
17425;DHT22;8830;50.978;5.058;2022-11-20T14:47:43;8.20;99.90
17425;DHT22;8830;50.978;5.058;2022-11-20T14:50:15;8.50;99.90
17425;DHT22;8830;50.978;5.058;2022-11-20T14:52:50;8.10;99.90
17425;DHT22;8830;50.978;5.058;2022-11-20T14:55:30;8.10;99.90
17425;DHT22;8830;50.978;5.058;2022-11-20T14:57:59;8.10;99.90
17425;DHT22;8830;50.978;5.058;2022-11-20T15:00:28;8.10;99.90
17425;DHT22;8830;50.978;5.058;2022-11-20T15:02:56;8.10;99.90
17425;DHT22;8830;50.978;5.058;2022-11-20T15:05:25;8.10;99.90
17425;DHT22;8830;50.978;5.058;2022-11-20T15:08:05;8.10;99.90
17425;DHT22;8830;50.978;5.058;2022-11-20T15:10:34;8.10;99.90
17425;DHT22;8830;50.978;5.058;2022-11-20T15:13:04;8.00;99.90
17425;DHT22;8830;50.978;5.058;2022-11-20T15:15:35;8.00;99.90
17425;DHT22;8830;50.978;5.058;2022-11-20T15:18:03;8.10;99.90
17425;DHT22;8830;50.978;5.058;2022-11-20T15:20:31;8.10;99.90
17425;DHT22;8830;50.978;5.058;2022-11-20T15:22:59;8.10;99.90
17425;DHT22;8830;50.978;5.058;2022-11-20T15:25:27;8.10;99.90
17425;DHT22;8830;50.978;5.058;2022-11-20T15:27:56;8.10;99.90
17425;DHT22;8830;50.978;5.058;2022-11-20T15:30:24;8.10;99.90
17425;DHT22;8830;50.978;5.058;2022-11-20T15:32:51;8.10;99.90
17425;DHT22;8830;50.978;5.058;2022-11-20T15:35:18;8.10;99.90
17425;DHT22;8830;50.978;5.058;2022-11-20T15:37:45;8.20;99.90
17425;DHT22;8830;50.978;5.058;2022-11-20T15:40:12;8.10;99.90
17425;DHT22;8830;50.978;5.058;2022-11-20T15:42:39;8.20;99.90
17425;DHT22;8830;50.978;5.058;2022-11-20T15:45:30;8.20;99.90
17425;DHT22;8830;50.978;5.058;2022-11-20T15:47:59;8.20;99.90
17425;DHT22;8830;50.978;5.058;2022-11-20T15:50:31;8.20;99.90
17425;DHT22;8830;50.978;5.058;2022-11-20T15:52:59;8.20;99.90
17425;DHT22;8830;50.978;5.058;2022-11-20T15:55:27;8.30;99.90
17425;DHT22;8830;50.978;5.058;2022-11-20T15:57:53;8.20;99.90
17425;DHT22;8830;50.978;5.058;2022-11-20T16:00:20;8.20;99.90
17425;DHT22;8830;50.978;5.058;2022-11-20T16:02:49;8.30;99.90
17425;DHT22;8830;50.978;5.058;2022-11-20T16:05:15;8.30;99.90
17425;DHT22;8830;50.978;5.058;2022-11-20T16:07:44;8.30;99.90
17425;DHT22;8830;50.978;5.058;2022-11-20T16:10:10;8.40;99.90
17425;DHT22;8830;50.978;5.058;2022-11-20T16:12:37;8.40;99.90
17425;DHT22;8830;50.978;5.058;2022-11-20T16:15:22;8.40;99.90
17425;DHT22;8830;50.978;5.058;2022-11-20T16:18:08;8.40;99.90
17425;DHT22;8830;50.978;5.058;2022-11-20T16:20:38;8.50;99.90
17425;DHT22;8830;50.978;5.058;2022-11-20T16:23:06;7.30;99.90
17425;DHT22;8830;50.978;5.058;2022-11-20T16:25:33;8.50;99.90
17425;DHT22;8830;50.978;5.058;2022-11-20T16:28:00;8.50;99.90
17425;DHT22;8830;50.978;5.058;2022-11-20T16:30:27;8.50;99.90
17425;DHT22;8830;50.978;5.058;2022-11-20T16:32:54;8.50;99.90
17425;DHT22;8830;50.978;5.058;2022-11-20T16:35:22;8.60;99.90
17425;DHT22;8830;50.978;5.058;2022-11-20T16:37:49;8.50;99.90
17425;DHT22;8830;50.978;5.058;2022-11-20T16:40:16;8.50;99.90
17425;DHT22;8830;50.978;5.058;2022-11-20T16:42:43;8.50;99.90
17425;DHT22;8830;50.978;5.058;2022-11-20T16:45:10;8.60;99.90
17425;DHT22;8830;50.978;5.058;2022-11-20T16:47:38;8.50;99.90
17425;DHT22;8830;50.978;5.058;2022-11-20T16:50:06;8.50;99.90